Time;durP1;ratioP1;P1;durP2;ratioP2;P2;SDS_P1;SDS_P2;PMS_P1;PMS_P2;Temp;Humidity;BMP_temperature;BMP_pressure;BME280_temperature;BME280_humidity;BME280_pressure;Samples;Min_cycle;Max_cycle;Signal;HPM_P1;HPM_P2
2023/06/27 00:01:43;;;;;;;3.92;1.70;;;;;;;16.43;63.34;101908.41;5047748;28;20059;-83
2023/06/27 00:04:09;;;;;;;2.97;1.67;;;;;;;16.44;63.49;101910.13;5046185;28;20037;-83
2023/06/27 00:06:40;;;;;;;3.45;1.80;;;;;;;16.42;63.60;101904.03;5049032;28;20044;-83
2023/06/27 00:09:06;;;;;;;3.80;2.05;;;;;;;16.43;63.93;101902.28;5051341;28;20408;-83
2023/06/27 00:11:31;;;;;;;5.47;1.92;;;;;;;16.42;63.85;101908.47;5050823;28;20108;-83
2023/06/27 00:13:58;;;;;;;4.68;1.90;;;;;;;16.42;63.79;101906.69;5053589;28;20036;-83
2023/06/27 00:16:24;;;;;;;3.78;1.80;;;;;;;16.44;63.96;101910.13;5035480;28;20056;-83
2023/06/27 00:18:50;;;;;;;3.97;1.77;;;;;;;16.44;64.13;101904.00;5034817;28;20193;-83
2023/06/27 00:21:15;;;;;;;4.85;2.00;;;;;;;16.44;63.85;101899.59;5051423;28;20495;-83
2023/06/27 00:23:42;;;;;;;4.15;1.80;;;;;;;16.43;64.06;101903.13;5034032;28;20025;-83
2023/06/27 00:26:08;;;;;;;5.25;2.15;;;;;;;16.45;64.18;101903.94;5053372;28;20518;-83
2023/06/27 00:28:34;;;;;;;5.38;1.80;;;;;;;16.45;64.20;101895.22;5053911;28;20029;-83
2023/06/27 00:30:59;;;;;;;5.00;1.90;;;;;;;16.46;64.36;101897.78;5053278;28;20655;-83
2023/06/27 00:33:24;;;;;;;4.45;1.70;;;;;;;16.47;64.29;101896.88;5052145;28;20429;-83
2023/06/27 00:35:49;;;;;;;3.53;1.70;;;;;;;16.48;64.39;101901.22;5048800;28;20048;-83
2023/06/27 00:38:15;;;;;;;3.05;1.70;;;;;;;16.48;64.35;101898.59;5051353;28;20017;-83
2023/06/27 00:40:40;;;;;;;3.28;1.83;;;;;;;16.48;64.71;101895.97;5049102;28;20021;-83
2023/06/27 00:43:05;;;;;;;4.30;1.75;;;;;;;16.49;64.57;101900.31;5051924;28;20029;-83
2023/06/27 00:45:30;;;;;;;3.35;1.75;;;;;;;16.49;64.73;101892.44;5051283;28;20411;-83
2023/06/27 00:48:00;;;;;;;7.93;2.45;;;;;;;16.49;64.90;101897.69;5049345;28;20037;-83
2023/06/27 00:50:27;;;;;;;5.90;2.00;;;;;;;16.47;65.13;101894.25;5027882;28;20025;-83
2023/06/27 00:52:52;;;;;;;2.90;1.63;;;;;;;16.47;65.13;101898.66;5050164;28;20033;-83
2023/06/27 00:55:20;;;;;;;6.05;1.83;;;;;;;16.45;65.04;101903.09;5051392;28;20135;-83
2023/06/27 00:57:46;;;;;;;4.80;2.05;;;;;;;16.45;65.17;101905.75;5051712;28;20035;-83
2023/06/27 01:00:16;;;;;;;6.05;1.85;;;;;;;16.46;65.34;101903.03;5053622;28;20523;-83
2023/06/27 01:02:43;;;;;;;4.78;1.70;;;;;;;16.46;65.19;101903.03;5053014;28;20472;-83
2023/06/27 01:05:09;;;;;;;6.95;1.85;;;;;;;16.48;65.36;101905.63;5050022;28;20032;-83
2023/06/27 01:07:39;;;;;;;4.95;2.00;;;;;;;16.47;65.19;101904.75;5051602;28;20040;-83
2023/06/27 01:10:13;;;;;;;8.97;1.83;;;;;;;16.47;64.83;101907.38;5054087;28;20037;-83
2023/06/27 01:12:48;;;;;;;5.10;2.10;;;;;;;16.47;65.11;101898.66;5054049;28;20862;-83
2023/06/27 01:15:13;;;;;;;5.53;1.80;;;;;;;16.47;65.01;101904.75;5050986;28;20056;-83
2023/06/27 01:17:40;;;;;;;4.75;1.88;;;;;;;16.48;65.57;101898.59;5036265;28;20028;-83
2023/06/27 01:20:07;;;;;;;4.45;1.77;;;;;;;16.48;65.61;101906.47;5050780;28;20476;-83
2023/06/27 01:22:40;;;;;;;3.70;2.00;;;;;;;16.47;65.55;101910.03;5053868;28;20029;-83
2023/06/27 01:25:07;;;;;;;4.00;2.00;;;;;;;16.47;65.90;101909.19;5050824;28;20078;-83
2023/06/27 01:27:33;;;;;;;4.55;1.88;;;;;;;16.47;65.88;101904.75;5053894;28;20047;-83
2023/06/27 01:29:58;;;;;;;4.10;2.03;;;;;;;16.45;66.08;101896.06;5052833;28;20354;-83
2023/06/27 01:32:37;;;;;;;5.82;2.00;;;;;;;16.46;65.21;101897.78;5051865;28;20029;-83
2023/06/27 01:35:13;;;;;;;4.78;2.00;;;;;;;16.45;65.55;101895.22;5047700;28;20060;-83
2023/06/27 01:37:48;;;;;;;3.88;1.80;;;;;;;16.43;65.89;101903.13;5050989;28;20481;-83
2023/06/27 01:40:19;;;;;;;4.93;1.92;;;;;;;16.41;66.16;101896.22;5048860;28;20028;-83
2023/06/27 01:42:49;;;;;;;4.60;1.98;;;;;;;16.40;66.25;101900.63;5033158;28;20483;-83
2023/06/27 01:45:17;;;;;;;4.22;1.90;;;;;;;16.41;66.16;101901.50;5049695;28;20100;-83
2023/06/27 01:47:44;;;;;;;5.25;2.00;;;;;;;16.40;66.12;101903.25;5050438;28;20036;-83
2023/06/27 01:50:11;;;;;;;6.18;2.20;;;;;;;16.42;66.24;101905.84;5047781;28;20032;-83
2023/06/27 01:52:36;;;;;;;6.70;2.30;;;;;;;16.41;66.42;101899.72;5047653;28;20993;-83
2023/06/27 01:55:02;;;;;;;6.47;2.15;;;;;;;16.41;66.38;101899.72;5047971;28;20784;-83
2023/06/27 01:57:27;;;;;;;4.93;2.10;;;;;;;16.42;66.37;101895.31;5046706;28;20021;-83
2023/06/27 01:59:52;;;;;;;6.05;2.53;;;;;;;16.41;66.52;101894.44;5045522;28;20029;-83
2023/06/27 02:02:19;;;;;;;6.25;2.10;;;;;;;16.40;66.39;101897.97;5048802;28;20031;-83
2023/06/27 02:04:44;;;;;;;6.20;2.05;;;;;;;16.38;66.83;101895.44;5043614;28;20349;-83
2023/06/27 02:07:10;;;;;;;5.53;2.00;;;;;;;16.38;66.63;101891.94;5043756;28;20490;-83
2023/06/27 02:09:35;;;;;;;5.68;2.13;;;;;;;16.37;67.11;101884.97;5048571;28;21651;-83
2023/06/27 02:12:00;;;;;;;4.82;2.08;;;;;;;16.35;66.70;101884.16;5048916;28;20464;-82
2023/06/27 02:14:25;;;;;;;6.53;2.10;;;;;;;16.34;67.07;101888.56;5049798;28;20036;-82
2023/06/27 02:16:51;;;;;;;6.95;2.38;;;;;;;16.34;66.50;101887.69;5047564;28;20036;-82
2023/06/27 02:19:16;;;;;;;7.13;2.17;;;;;;;16.34;66.83;101887.69;5046421;28;20104;-82
2023/06/27 02:21:42;;;;;;;7.05;2.30;;;;;;;16.34;66.86;101883.28;5049104;28;20129;-83
2023/06/27 02:24:08;;;;;;;7.57;2.13;;;;;;;16.33;67.00;101886.81;5048177;28;20507;-82
2023/06/27 02:26:33;;;;;;;9.20;2.20;;;;;;;16.32;66.95;101879.00;5047500;28;20032;-82
2023/06/27 02:28:58;;;;;;;7.00;2.42;;;;;;;16.31;67.24;101882.56;5050541;28;20161;-82
2023/06/27 02:31:24;;;;;;;6.70;2.33;;;;;;;16.30;67.64;101883.47;5045731;28;20365;-83
2023/06/27 02:33:49;;;;;;;4.65;2.03;;;;;;;16.29;67.21;101871.22;5047528;28;20039;-82
2023/06/27 02:36:14;;;;;;;5.68;2.00;;;;;;;16.29;67.10;101884.38;5046852;28;20028;-82
2023/06/27 02:38:40;;;;;;;9.10;2.60;;;;;;;16.27;67.53;101879.19;5048776;28;20027;-83
2023/06/27 02:41:05;;;;;;;6.13;2.00;;;;;;;16.26;67.39;101874.84;5048567;28;20048;-82
2023/06/27 02:43:30;;;;;;;8.63;2.08;;;;;;;16.25;67.75;101873.13;5046565;28;20033;-83
2023/06/27 02:45:57;;;;;;;7.82;2.05;;;;;;;16.23;67.99;101875.78;5046700;28;20512;-84
2023/06/27 02:48:22;;;;;;;6.82;2.25;;;;;;;16.21;68.00;101872.38;5043597;28;20845;-83
2023/06/27 02:50:50;;;;;;;6.20;2.03;;;;;;;16.20;67.83;101880.28;5045440;28;20025;-83
2023/06/27 02:53:16;;;;;;;7.90;2.40;;;;;;;16.18;68.08;101876.84;5049110;28;20035;-83
2023/06/27 02:55:41;;;;;;;5.00;2.20;;;;;;;16.18;68.16;101876.84;5050964;28;20026;-82
2023/06/27 02:58:06;;;;;;;6.68;2.28;;;;;;;16.14;68.05;101868.22;5049576;28;20052;-83
2023/06/27 03:00:32;;;;;;;4.47;2.10;;;;;;;16.12;68.33;101875.28;5049710;28;20439;-82
2023/06/27 03:02:57;;;;;;;6.20;2.05;;;;;;;16.13;67.90;101878.78;5030615;28;20068;-83
2023/06/27 03:05:22;;;;;;;5.35;1.83;;;;;;;16.11;68.36;101877.97;5050304;28;20436;-82
2023/06/27 03:07:48;;;;;;;5.80;2.28;;;;;;;16.10;68.36;101882.34;5049186;28;20030;-82
2023/06/27 03:10:13;;;;;;;6.03;2.10;;;;;;;16.09;68.31;101885.88;5047761;28;20064;-82
2023/06/27 03:12:38;;;;;;;6.05;2.08;;;;;;;16.07;68.43;101885.06;5045284;28;20032;-82
2023/06/27 03:15:04;;;;;;;6.38;2.20;;;;;;;16.07;68.81;101885.06;5048850;28;20020;-82
2023/06/27 03:17:30;;;;;;;5.05;2.33;;;;;;;16.06;68.38;101893.84;5046337;28;20059;-83
2023/06/27 03:19:55;;;;;;;5.63;1.90;;;;;;;16.04;68.60;101890.44;5047338;28;20423;-83
2023/06/27 03:22:21;;;;;;;6.80;2.00;;;;;;;16.03;68.38;101893.97;5048681;28;20033;-82
2023/06/27 03:24:47;;;;;;;6.75;1.92;;;;;;;16.01;68.87;101888.75;5044742;28;20099;-82
2023/06/27 03:27:13;;;;;;;5.78;2.15;;;;;;;16.01;68.88;101885.28;5041518;28;20036;-82
2023/06/27 03:29:39;;;;;;;7.20;2.08;;;;;;;16.00;68.93;101883.56;5028792;28;20036;-82
2023/06/27 03:32:04;;;;;;;5.43;1.80;;;;;;;15.98;69.10;101888.00;5048995;28;20387;-83
2023/06/27 03:34:30;;;;;;;4.03;1.92;;;;;;;15.97;69.20;101889.75;5046571;28;20029;-82
2023/06/27 03:36:55;;;;;;;7.18;2.22;;;;;;;15.95;69.31;101881.09;5046264;28;20045;-83
2023/06/27 03:39:20;;;;;;;5.53;2.28;;;;;;;15.96;69.42;101887.19;5049828;28;20075;-82
2023/06/27 03:41:45;;;;;;;4.90;2.08;;;;;;;15.95;69.68;101882.84;5047549;28;20495;-82
2023/06/27 03:44:11;;;;;;;6.93;1.92;;;;;;;15.95;69.76;101881.09;5048551;28;20067;-82
2023/06/27 03:46:36;;;;;;;7.18;1.98;;;;;;;15.94;69.82;101882.00;5047553;28;20371;-83
2023/06/27 03:49:01;;;;;;;4.75;1.83;;;;;;;15.93;69.93;101881.13;5047875;28;20468;-82
2023/06/27 03:51:27;;;;;;;5.05;1.95;;;;;;;15.95;69.62;101880.22;5044665;28;20028;-82
2023/06/27 03:53:52;;;;;;;8.02;2.13;;;;;;;15.92;69.73;101879.41;5043740;28;20031;-83
2023/06/27 03:56:18;;;;;;;4.05;1.98;;;;;;;15.92;69.92;101887.28;5047050;28;20025;-83
2023/06/27 03:58:43;;;;;;;5.53;2.28;;;;;;;15.91;70.12;101890.78;5047175;28;20028;-82
2023/06/27 04:01:11;;;;;;;6.00;1.90;;;;;;;15.92;69.97;101891.66;5029417;28;20036;-83
2023/06/27 04:03:36;;;;;;;4.78;2.00;;;;;;;15.89;70.34;101889.97;5025164;28;20063;-82
2023/06/27 04:06:01;;;;;;;4.75;2.00;;;;;;;15.90;70.54;101889.06;5044278;28;20448;-82
2023/06/27 04:08:27;;;;;;;4.78;1.98;;;;;;;15.90;70.34;101890.84;5044437;28;20068;-82
2023/06/27 04:10:52;;;;;;;7.15;2.08;;;;;;;15.90;70.41;101889.06;5047878;28;20376;-83
2023/06/27 04:13:17;;;;;;;6.10;2.00;;;;;;;15.88;70.41;101893.53;5046249;28;20053;-83
2023/06/27 04:15:42;;;;;;;6.10;2.05;;;;;;;15.89;70.44;101887.34;5044001;28;20047;-82
2023/06/27 04:18:08;;;;;;;7.18;2.10;;;;;;;15.88;70.70;101885.66;5042902;28;20038;-83
2023/06/27 04:20:34;;;;;;;5.88;2.00;;;;;;;15.87;70.78;101883.06;5042270;28;20472;-82
2023/06/27 04:23:00;;;;;;;6.93;2.20;;;;;;;15.85;70.77;101885.75;5047074;28;20033;-82
2023/06/27 04:25:30;;;;;;;7.60;2.17;;;;;;;15.83;70.70;101887.53;5046832;28;20052;-82
2023/06/27 04:27:56;;;;;;;9.57;2.30;;;;;;;15.82;71.29;101887.56;5048100;28;20033;-83
2023/06/27 04:30:21;;;;;;;4.65;2.20;;;;;;;15.80;71.49;101882.38;5047778;28;20476;-83
2023/06/27 04:32:48;;;;;;;6.40;2.55;;;;;;;15.80;71.41;101892.88;5043418;28;20029;-82
2023/06/27 04:35:17;;;;;;;5.35;2.40;;;;;;;15.77;71.17;101892.97;5047349;28;20056;-82
2023/06/27 04:37:43;;;;;;;5.88;2.50;;;;;;;15.76;71.50;101886.88;5047175;28;20087;-82
2023/06/27 04:40:11;;;;;;;5.88;2.40;;;;;;;15.75;71.76;101892.16;5041719;28;20025;-82
2023/06/27 04:42:37;;;;;;;6.00;2.20;;;;;;;15.74;72.01;101893.06;5030806;28;20021;-82
2023/06/27 04:45:02;;;;;;;7.97;2.80;;;;;;;15.73;71.93;101892.22;5046786;28;20028;-82
2023/06/27 04:47:28;;;;;;;5.20;2.13;;;;;;;15.73;72.05;101891.34;5047552;28;20348;-82
2023/06/27 04:49:53;;;;;;;7.72;2.58;;;;;;;15.72;71.87;101890.50;5044627;28;20380;-82
2023/06/27 04:52:19;;;;;;;5.03;2.88;;;;;;;15.72;72.06;101895.72;5044868;28;20048;-82
2023/06/27 04:54:49;;;;;;;7.32;2.75;;;;;;;15.71;72.24;101903.66;5049246;28;20025;-82
2023/06/27 04:57:15;;;;;;;6.30;3.10;;;;;;;15.71;72.33;101895.78;5052323;28;20021;-82
2023/06/27 04:59:41;;;;;;;8.95;3.42;;;;;;;15.70;72.15;101899.31;5051490;28;20414;-82
2023/06/27 05:02:07;;;;;;;6.10;3.55;;;;;;;15.69;72.53;101900.22;5048076;28;20021;-83
2023/06/27 05:04:33;;;;;;;7.80;3.55;;;;;;;15.69;72.44;101910.72;5028696;28;20045;-82
2023/06/27 05:06:58;;;;;;;6.90;4.18;;;;;;;15.69;72.51;101915.97;5051426;28;20035;-82
2023/06/27 05:09:23;;;;;;;8.65;3.42;;;;;;;15.69;72.62;101908.09;5050030;28;20078;-82
2023/06/27 05:11:49;;;;;;;5.70;3.60;;;;;;;15.69;72.55;101901.06;5050030;28;20103;-83
2023/06/27 05:14:14;;;;;;;9.27;3.83;;;;;;;15.70;72.97;101910.66;5050177;28;20043;-83
2023/06/27 05:16:40;;;;;;;6.90;3.67;;;;;;;15.71;72.92;101904.50;5053481;28;20475;-83
2023/06/27 05:19:05;;;;;;;8.55;3.38;;;;;;;15.74;73.01;101908.78;5047993;28;20052;-83
2023/06/27 05:21:30;;;;;;;9.55;2.90;;;;;;;15.77;73.16;101913.94;5054128;28;20024;-83
2023/06/27 05:23:56;;;;;;;12.93;3.17;;;;;;;15.81;73.06;101909.47;5052601;28;20033;-83
2023/06/27 05:26:21;;;;;;;5.60;3.67;;;;;;;15.86;73.13;101905.84;5051665;28;20496;-83
2023/06/27 05:28:46;;;;;;;8.15;3.28;;;;;;;15.91;72.67;101903.91;5052360;28;20036;-83
2023/06/27 05:31:11;;;;;;;9.38;3.30;;;;;;;15.96;73.07;101910.78;5050686;28;20031;-83
2023/06/27 05:33:37;;;;;;;6.55;3.30;;;;;;;15.98;72.96;101912.44;5050561;28;20357;-83
2023/06/27 05:36:02;;;;;;;5.35;3.05;;;;;;;16.02;73.29;101910.63;5047839;28;20159;-83
2023/06/27 05:38:27;;;;;;;7.22;3.38;;;;;;;16.04;73.63;101914.06;5051248;28;20395;-83
2023/06/27 05:40:52;;;;;;;8.95;3.38;;;;;;;16.05;73.49;101908.75;5052624;28;20123;-83
2023/06/27 05:43:18;;;;;;;8.75;3.38;;;;;;;16.08;73.61;101908.66;5050059;28;20025;-83
2023/06/27 05:45:43;;;;;;;8.65;3.50;;;;;;;16.12;73.98;101901.53;5049814;28;20017;-83
2023/06/27 05:48:08;;;;;;;8.10;3.33;;;;;;;16.15;73.72;101897.94;5044571;28;20021;-83
2023/06/27 05:50:35;;;;;;;7.13;3.28;;;;;;;16.19;74.27;101904.81;5050197;28;20025;-83
2023/06/27 05:53:00;;;;;;;9.95;3.35;;;;;;;16.24;73.52;101898.50;5049701;28;20028;-83
2023/06/27 05:55:25;;;;;;;9.10;3.22;;;;;;;16.29;74.22;101897.50;5051746;28;20017;-83
2023/06/27 05:57:50;;;;;;;7.20;3.50;;;;;;;16.35;74.12;101911.28;5049368;28;20456;-83
2023/06/27 06:00:16;;;;;;;8.77;3.30;;;;;;;16.40;74.62;101913.75;5022504;28;20091;-83
2023/06/27 06:02:43;;;;;;;8.40;3.15;;;;;;;16.41;74.44;101909.38;5049277;28;20037;-83
2023/06/27 06:05:10;;;;;;;8.45;3.75;;;;;;;16.42;75.00;101901.41;5050459;28;20021;-83
2023/06/27 06:07:36;;;;;;;5.63;2.78;;;;;;;16.46;75.04;101907.44;5045297;28;21241;-83
2023/06/27 06:10:02;;;;;;;9.80;3.15;;;;;;;16.52;74.34;101907.22;5031792;28;20017;-83
2023/06/27 06:12:28;;;;;;;6.53;2.95;;;;;;;16.57;74.48;101904.47;5046662;28;20152;-83
2023/06/27 06:14:53;;;;;;;9.50;3.05;;;;;;;16.63;74.57;101905.13;5048883;28;20143;-83
2023/06/27 06:17:19;;;;;;;6.70;3.03;;;;;;;16.68;74.39;101902.31;5051476;28;20365;-83
2023/06/27 06:19:44;;;;;;;6.68;2.80;;;;;;;16.75;74.80;101903.81;5046770;28;20112;-83
2023/06/27 06:22:09;;;;;;;8.48;3.30;;;;;;;16.79;75.21;101900.16;5049299;28;20024;-83
2023/06/27 06:24:34;;;;;;;8.88;2.90;;;;;;;16.81;74.93;101898.34;5046062;28;20025;-83
2023/06/27 06:27:00;;;;;;;10.13;2.92;;;;;;;16.80;75.06;101896.63;5049882;28;20121;-83
2023/06/27 06:29:25;;;;;;;7.43;3.03;;;;;;;16.86;75.28;101903.44;5046721;28;20017;-83
2023/06/27 06:31:51;;;;;;;8.50;2.97;;;;;;;16.92;74.95;101904.97;5046130;28;20029;-83
2023/06/27 06:34:16;;;;;;;6.93;2.83;;;;;;;16.96;74.77;101911.88;5048218;28;20391;-83
2023/06/27 06:36:41;;;;;;;6.18;2.97;;;;;;;17.02;74.97;101911.69;5042356;28;20029;-82
2023/06/27 06:39:07;;;;;;;6.38;2.80;;;;;;;17.07;74.13;101920.28;5043074;28;20017;-83
2023/06/27 06:41:33;;;;;;;6.70;2.85;;;;;;;17.11;74.29;101913.97;5043151;28;20062;-82
2023/06/27 06:43:58;;;;;;;6.88;2.78;;;;;;;17.17;74.49;101923.41;5048653;28;20472;-83
2023/06/27 06:46:24;;;;;;;6.10;2.78;;;;;;;17.24;73.96;101918.81;5030380;28;20037;-83
2023/06/27 06:48:49;;;;;;;8.63;2.80;;;;;;;17.28;74.10;101925.63;5043843;28;20037;-82
2023/06/27 06:51:24;;;;;;;7.20;2.85;;;;;;;17.34;73.64;101927.19;5043981;28;20028;-83
2023/06/27 06:53:49;;;;;;;5.88;3.13;;;;;;;17.39;71.94;101931.38;5045502;28;20480;-82
2023/06/27 06:56:14;;;;;;;10.23;3.10;;;;;;;17.40;72.89;101926.97;5041442;28;20025;-83
2023/06/27 06:58:40;;;;;;;10.10;3.40;;;;;;;17.46;73.01;101932.00;5047477;28;20020;-82
2023/06/27 07:01:05;;;;;;;7.47;2.78;;;;;;;17.52;72.34;101930.91;5047581;28;20040;-83
2023/06/27 07:03:31;;;;;;;8.07;3.05;;;;;;;17.60;73.61;101928.84;5044960;28;20040;-83
2023/06/27 07:05:56;;;;;;;6.32;3.22;;;;;;;17.67;71.90;101930.34;5045289;28;20108;-82
2023/06/27 07:08:21;;;;;;;9.73;3.25;;;;;;;17.75;71.01;101932.66;5049865;28;20081;-83
2023/06/27 07:10:46;;;;;;;9.63;3.10;;;;;;;17.80;71.65;101925.47;5049444;28;20036;-81
2023/06/27 07:13:12;;;;;;;9.98;3.22;;;;;;;17.89;71.79;101932.13;5047134;28;20028;-83
2023/06/27 07:15:37;;;;;;;5.68;2.58;;;;;;;17.96;71.18;101923.06;5049457;28;20024;-83
2023/06/27 07:18:02;;;;;;;5.38;2.92;;;;;;;18.04;68.33;101928.94;5045418;28;20029;-85
2023/06/27 07:20:28;;;;;;;6.63;2.63;;;;;;;18.13;68.68;101926.81;5043074;28;20032;-84
2023/06/27 07:22:53;;;;;;;5.95;2.55;;;;;;;18.23;66.33;101925.56;5048068;28;20399;-84
2023/06/27 07:25:19;;;;;;;4.15;1.60;;;;;;;18.32;62.55;101933.06;5046425;28;20044;-83
2023/06/27 07:27:45;;;;;;;5.43;1.80;;;;;;;18.43;61.88;101927.34;5042495;28;20024;-84
2023/06/27 07:30:11;;;;;;;4.28;1.67;;;;;;;18.58;61.24;101932.91;5047347;28;20021;-85
2023/06/27 07:32:37;;;;;;;4.90;1.60;;;;;;;18.68;59.85;101922.81;5044764;28;20119;-83
2023/06/27 07:35:04;;;;;;;4.70;1.67;;;;;;;18.73;61.41;101920.88;5046477;28;20049;-83
2023/06/27 07:37:30;;;;;;;3.47;1.42;;;;;;;18.77;58.88;101915.38;5049212;28;20024;-83
2023/06/27 07:39:55;;;;;;;4.70;1.50;;;;;;;18.80;60.18;101906.47;5047067;28;20023;-84
2023/06/27 07:42:20;;;;;;;5.05;1.30;;;;;;;18.85;58.27;101920.31;5047472;28;20472;-84
2023/06/27 07:44:45;;;;;;;2.70;1.23;;;;;;;18.85;58.34;101925.59;5048411;28;20066;-84
2023/06/27 07:47:11;;;;;;;3.35;1.42;;;;;;;18.84;58.41;101923.88;5044656;28;20016;-84
2023/06/27 07:49:37;;;;;;;5.15;1.50;;;;;;;18.85;57.88;101932.66;5041068;28;20033;-84
2023/06/27 07:52:05;;;;;;;4.00;1.25;;;;;;;18.86;56.70;101922.03;5019848;28;20047;-84
2023/06/27 07:54:31;;;;;;;2.25;1.00;;;;;;;18.91;56.54;101929.75;5041691;28;21279;-85
2023/06/27 07:56:56;;;;;;;7.38;1.40;;;;;;;18.95;57.08;101920.81;5041840;28;20476;-83
2023/06/27 07:59:21;;;;;;;5.40;1.30;;;;;;;19.00;58.11;101923.25;5047185;28;20365;-83
2023/06/27 08:01:47;;;;;;;6.15;1.45;;;;;;;19.04;57.48;101919.56;5039889;28;20033;-83
2023/06/27 08:04:12;;;;;;;7.30;1.40;;;;;;;19.13;58.52;101923.56;5040627;28;20128;-83
2023/06/27 08:06:37;;;;;;;4.82;1.40;;;;;;;19.20;58.53;101923.22;5040874;28;20045;-83
2023/06/27 08:09:03;;;;;;;3.75;1.30;;;;;;;19.27;58.35;101921.16;5038585;28;20390;-83
2023/06/27 08:11:28;;;;;;;4.57;1.40;;;;;;;19.36;58.21;101909.31;5036023;28;20021;-85
2023/06/27 08:13:54;;;;;;;3.80;1.38;;;;;;;19.46;57.53;101915.91;5038406;28;20488;-83
2023/06/27 08:16:19;;;;;;;3.80;1.30;;;;;;;19.56;57.53;101917.19;5038043;28;20043;-84
2023/06/27 08:18:44;;;;;;;4.40;1.30;;;;;;;19.59;58.00;101920.59;5040596;28;20025;-84
2023/06/27 08:21:09;;;;;;;3.75;1.70;;;;;;;19.61;56.64;101913.47;5039691;28;20041;-83
2023/06/27 08:23:35;;;;;;;2.83;1.30;;;;;;;19.63;59.07;101906.34;5041431;28;20033;-84
2023/06/27 08:26:00;;;;;;;5.63;1.17;;;;;;;19.65;56.84;101907.09;5041048;28;20033;-83
2023/06/27 08:28:25;;;;;;;5.32;1.45;;;;;;;19.68;54.72;101912.25;5043153;28;20020;-83
2023/06/27 08:30:51;;;;;;;3.80;1.00;;;;;;;19.69;55.31;101911.31;5044918;28;20021;-83
2023/06/27 08:33:16;;;;;;;4.20;1.20;;;;;;;19.68;55.75;101913.13;5043493;28;20033;-83
2023/06/27 08:35:41;;;;;;;5.10;1.23;;;;;;;19.73;54.55;101914.69;5044570;28;20075;-86
2023/06/27 08:38:08;;;;;;;4.60;1.40;;;;;;;19.78;54.67;101905.63;5048244;28;20112;-84
2023/06/27 08:40:37;;;;;;;3.45;1.10;;;;;;;19.79;54.30;101915.25;5029042;28;20032;-83
2023/06/27 08:43:04;;;;;;;5.05;1.35;;;;;;;19.78;54.34;101905.63;5044621;28;20453;-82
2023/06/27 08:45:31;;;;;;;4.40;1.17;;;;;;;19.79;54.18;101917.00;5047454;28;20509;-83
2023/06/27 08:47:56;;;;;;;5.25;1.27;;;;;;;19.82;54.57;101904.50;5046660;28;20037;-83
2023/06/27 08:50:22;;;;;;;5.30;1.30;;;;;;;19.83;53.90;101903.59;5025094;28;20375;-83
2023/06/27 08:52:54;;;;;;;5.75;1.17;;;;;;;19.85;54.06;101901.72;5045594;28;20045;-84
2023/06/27 08:55:44;;;;;;;7.32;1.33;;;;;;;19.91;54.76;101905.06;5049094;28;20059;-85
2023/06/27 08:58:14;;;;;;;3.55;1.40;;;;;;;19.88;54.28;101905.19;5046462;28;20047;-86
2023/06/27 09:00:40;;;;;;;5.68;1.40;;;;;;;19.87;54.81;101904.34;5044408;28;20025;-86
2023/06/27 09:03:06;;;;;;;5.38;1.40;;;;;;;19.90;55.10;101900.69;5045909;28;20071;-81
2023/06/27 09:05:35;;;;;;;5.00;1.23;;;;;;;19.88;54.94;101898.13;5044441;28;20025;-81
2023/06/27 09:08:00;;;;;;;3.80;1.35;;;;;;;19.83;55.29;101893.03;5041848;28;20036;-83
2023/06/27 09:10:26;;;;;;;4.88;1.38;;;;;;;19.80;54.92;101890.56;5046780;28;20159;-82
2023/06/27 09:12:54;;;;;;;3.13;1.17;;;;;;;19.82;55.49;101904.50;5046132;28;20029;-82
2023/06/27 09:15:19;;;;;;;3.47;1.40;;;;;;;19.82;55.25;101901.03;5029376;28;20495;-82
2023/06/27 09:17:46;;;;;;;4.00;1.25;;;;;;;19.84;55.09;101915.88;5047278;28;20060;-81
2023/06/27 09:20:15;;;;;;;5.45;1.38;;;;;;;19.85;54.90;101907.00;5048709;28;20491;-82
2023/06/27 09:22:42;;;;;;;3.60;1.20;;;;;;;19.86;53.57;101905.25;5045133;28;20495;-84
2023/06/27 09:25:19;;;;;;;5.78;1.15;;;;;;;19.88;54.63;101905.19;5045811;28;20039;-85
2023/06/27 09:27:45;;;;;;;7.00;1.20;;;;;;;19.96;54.06;101905.69;5030457;28;20057;-85
2023/06/27 09:30:11;;;;;;;11.18;1.73;;;;;;;20.04;52.57;101903.50;5047898;28;20060;-83
2023/06/27 09:32:58;;;;;;;3.75;1.10;;;;;;;20.13;53.63;101900.44;5041907;28;20434;-82
2023/06/27 09:35:25;;;;;;;6.25;1.15;;;;;;;20.20;52.92;101908.91;5043443;28;20025;-82
2023/06/27 09:37:52;;;;;;;5.65;1.30;;;;;;;20.27;53.33;101912.09;5048849;28;20029;-82
2023/06/27 09:40:24;;;;;;;4.22;0.98;;;;;;;20.32;50.74;101921.50;5047349;28;20112;-81
2023/06/27 09:42:51;;;;;;;2.92;1.05;;;;;;;20.30;49.82;101901.38;5026445;28;20049;-82
2023/06/27 09:45:17;;;;;;;3.15;1.15;;;;;;;20.31;48.68;101914.50;5044489;28;20730;-82
2023/06/27 09:47:43;;;;;;;4.18;1.40;;;;;;;20.33;50.59;101925.00;5042626;28;20094;-80
2023/06/27 09:50:08;;;;;;;2.65;0.90;;;;;;;20.43;53.71;101920.09;5042025;28;20037;-82
2023/06/27 09:52:34;;;;;;;4.25;1.13;;;;;;;20.51;51.61;101914.44;5043239;28;20522;-84
2023/06/27 09:54:59;;;;;;;4.22;1.00;;;;;;;20.53;50.63;101921.38;5045802;28;20089;-81
2023/06/27 09:57:26;;;;;;;3.55;0.95;;;;;;;20.55;49.86;101918.63;5044617;28;20484;-81
2023/06/27 09:59:58;;;;;;;4.50;1.02;;;;;;;20.53;49.70;101918.72;5043136;28;20025;-81
2023/06/27 10:02:28;;;;;;;2.10;0.70;;;;;;;20.55;47.55;101921.28;5045229;28;20389;-81
2023/06/27 10:04:53;;;;;;;1.52;0.65;;;;;;;20.52;44.42;101918.78;5045237;28;20100;-81
2023/06/27 10:07:19;;;;;;;2.63;0.70;;;;;;;20.45;45.81;101905.91;5042273;28;20164;-81
2023/06/27 10:09:45;;;;;;;3.80;1.25;;;;;;;20.42;45.83;101919.25;5043256;28;20158;-80
2023/06/27 10:12:10;;;;;;;0.90;0.60;;;;;;;20.38;46.22;101912.41;5043688;28;20029;-81
2023/06/27 10:14:36;;;;;;;2.58;0.80;;;;;;;20.45;48.24;101910.31;5044754;28;20038;-81
2023/06/27 10:17:03;;;;;;;2.70;1.10;;;;;;;20.57;48.24;101924.69;5044687;28;20032;-81
2023/06/27 10:19:31;;;;;;;3.65;0.82;;;;;;;20.62;46.52;101914.75;5045679;28;20028;-81
2023/06/27 10:21:59;;;;;;;3.13;0.85;;;;;;;20.72;48.97;101923.91;5049127;28;20033;-81
2023/06/27 10:24:25;;;;;;;1.60;0.80;;;;;;;20.80;46.22;101928.00;5050063;28;20044;-81
2023/06/27 10:26:54;;;;;;;2.38;1.00;;;;;;;20.82;46.00;101923.50;5045605;28;20020;-81
2023/06/27 10:29:22;;;;;;;3.70;0.85;;;;;;;20.85;46.18;101926.81;5043094;28;20035;-81
2023/06/27 10:31:49;;;;;;;3.60;1.00;;;;;;;20.88;46.89;101928.44;5041628;28;20209;-82
2023/06/27 10:34:24;;;;;;;3.28;1.02;;;;;;;20.85;47.69;101918.00;5044560;28;20025;-82
2023/06/27 10:36:59;;;;;;;1.92;0.88;;;;;;;20.88;47.22;101913.44;5046965;28;20078;-82
2023/06/27 10:39:26;;;;;;;3.95;1.08;;;;;;;20.94;46.53;101922.84;5043295;28;20031;-81
2023/06/27 10:41:58;;;;;;;2.63;0.77;;;;;;;20.92;47.79;101919.41;5041233;28;20036;-81
2023/06/27 10:44:24;;;;;;;2.33;0.82;;;;;;;20.92;43.86;101919.41;5026276;28;20024;-82
2023/06/27 10:47:15;;;;;;;1.73;0.70;;;;;;;20.97;46.74;101916.50;5044268;28;20553;-83
2023/06/27 10:49:45;;;;;;;1.67;0.60;;;;;;;20.96;43.03;101918.31;5043088;28;20395;-84
2023/06/27 10:52:11;;;;;;;3.10;0.70;;;;;;;20.97;43.62;101906.81;5040722;28;20546;-84
2023/06/27 10:54:40;;;;;;;1.73;0.80;;;;;;;21.08;44.74;101904.44;5043568;28;20021;-82
2023/06/27 10:57:06;;;;;;;1.70;0.70;;;;;;;21.18;46.44;101898.66;5041824;28;20025;-82
2023/06/27 10:59:33;;;;;;;2.25;0.70;;;;;;;21.26;45.33;101907.03;5040402;28;20079;-82
2023/06/27 11:02:00;;;;;;;4.15;1.00;;;;;;;21.34;46.70;101899.53;5027618;28;20035;-82
2023/06/27 11:04:39;;;;;;;1.40;0.63;;;;;;;21.50;46.47;101906.63;5044286;28;20045;-82
2023/06/27 11:07:14;;;;;;;2.35;0.80;;;;;;;21.64;45.45;101890.00;5044756;28;20039;-82
2023/06/27 11:09:51;;;;;;;3.20;0.80;;;;;;;21.66;43.32;101904.88;5042191;28;20078;-81
2023/06/27 11:12:17;;;;;;;1.58;0.50;;;;;;;21.61;42.99;101895.47;5027068;28;20373;-81
2023/06/27 11:14:45;;;;;;;2.75;0.90;;;;;;;21.57;44.59;101897.41;5045661;28;20031;-82
2023/06/27 11:17:12;;;;;;;3.80;0.80;;;;;;;21.53;45.20;101893.19;5041492;28;20188;-82
2023/06/27 11:19:39;;;;;;;3.22;0.93;;;;;;;21.52;45.38;101904.75;5048291;28;20100;-81
2023/06/27 11:22:05;;;;;;;2.00;0.90;;;;;;;21.47;44.04;101888.28;5044531;28;20111;-81